sensor_id;sensor_type;location;lat;lon;timestamp;P1;durP1;ratioP1;P2;durP2;ratioP2
71969;SDS011;59838;52.152;5.436;2023-05-10T00:01:05;19.27;;;9.95;;
71969;SDS011;59838;52.152;5.436;2023-05-10T00:03:31;15.45;;;8.90;;
71969;SDS011;59838;52.152;5.436;2023-05-10T00:05:58;17.80;;;8.85;;
71969;SDS011;59838;52.152;5.436;2023-05-10T00:08:24;18.83;;;9.13;;
71969;SDS011;59838;52.152;5.436;2023-05-10T00:10:51;20.77;;;9.87;;
71969;SDS011;59838;52.152;5.436;2023-05-10T00:13:19;24.38;;;9.88;;
71969;SDS011;59838;52.152;5.436;2023-05-10T00:15:45;15.50;;;8.90;;
71969;SDS011;59838;52.152;5.436;2023-05-10T00:18:12;16.13;;;8.77;;
71969;SDS011;59838;52.152;5.436;2023-05-10T00:20:38;18.88;;;9.52;;
71969;SDS011;59838;52.152;5.436;2023-05-10T00:23:04;14.47;;;7.40;;
71969;SDS011;59838;52.152;5.436;2023-05-10T00:25:31;14.73;;;7.63;;
71969;SDS011;59838;52.152;5.436;2023-05-10T00:27:57;14.25;;;7.25;;
71969;SDS011;59838;52.152;5.436;2023-05-10T00:30:24;16.23;;;7.65;;
71969;SDS011;59838;52.152;5.436;2023-05-10T00:32:50;13.15;;;7.93;;
71969;SDS011;59838;52.152;5.436;2023-05-10T00:35:17;14.50;;;7.60;;
71969;SDS011;59838;52.152;5.436;2023-05-10T00:37:44;17.50;;;8.40;;
71969;SDS011;59838;52.152;5.436;2023-05-10T00:40:11;15.82;;;8.52;;
71969;SDS011;59838;52.152;5.436;2023-05-10T00:42:37;22.42;;;9.40;;
71969;SDS011;59838;52.152;5.436;2023-05-10T00:45:04;22.48;;;10.98;;
71969;SDS011;59838;52.152;5.436;2023-05-10T00:47:31;23.67;;;10.57;;
71969;SDS011;59838;52.152;5.436;2023-05-10T00:49:58;23.50;;;11.63;;
71969;SDS011;59838;52.152;5.436;2023-05-10T00:52:27;27.27;;;11.93;;
71969;SDS011;59838;52.152;5.436;2023-05-10T00:54:55;28.30;;;13.18;;
71969;SDS011;59838;52.152;5.436;2023-05-10T00:57:22;30.63;;;12.07;;
71969;SDS011;59838;52.152;5.436;2023-05-10T00:59:49;30.03;;;12.53;;
71969;SDS011;59838;52.152;5.436;2023-05-10T01:02:16;36.05;;;15.32;;
71969;SDS011;59838;52.152;5.436;2023-05-10T01:04:43;38.90;;;16.58;;
71969;SDS011;59838;52.152;5.436;2023-05-10T01:07:10;43.72;;;17.85;;
71969;SDS011;59838;52.152;5.436;2023-05-10T01:09:36;40.80;;;16.50;;
71969;SDS011;59838;52.152;5.436;2023-05-10T01:12:03;44.13;;;17.73;;
71969;SDS011;59838;52.152;5.436;2023-05-10T01:14:33;41.22;;;16.20;;
71969;SDS011;59838;52.152;5.436;2023-05-10T01:17:00;44.95;;;16.75;;
71969;SDS011;59838;52.152;5.436;2023-05-10T01:19:28;41.05;;;16.98;;
71969;SDS011;59838;52.152;5.436;2023-05-10T01:35:43;47.83;;;17.40;;
71969;SDS011;59838;52.152;5.436;2023-05-10T01:38:38;42.03;;;16.60;;
71969;SDS011;59838;52.152;5.436;2023-05-10T01:41:22;43.53;;;17.27;;
71969;SDS011;59838;52.152;5.436;2023-05-10T01:46:36;40.83;;;16.90;;
71969;SDS011;59838;52.152;5.436;2023-05-10T01:49:08;42.60;;;17.10;;
71969;SDS011;59838;52.152;5.436;2023-05-10T01:51:39;42.17;;;15.77;;
71969;SDS011;59838;52.152;5.436;2023-05-10T01:54:10;42.63;;;17.00;;
71969;SDS011;59838;52.152;5.436;2023-05-10T01:56:39;47.65;;;17.85;;
71969;SDS011;59838;52.152;5.436;2023-05-10T01:59:12;48.67;;;17.08;;
71969;SDS011;59838;52.152;5.436;2023-05-10T02:01:41;54.53;;;18.67;;
71969;SDS011;59838;52.152;5.436;2023-05-10T02:04:09;53.50;;;17.30;;
71969;SDS011;59838;52.152;5.436;2023-05-10T02:06:38;44.45;;;15.38;;
71969;SDS011;59838;52.152;5.436;2023-05-10T02:09:06;45.03;;;15.93;;
71969;SDS011;59838;52.152;5.436;2023-05-10T02:11:35;47.38;;;17.00;;
71969;SDS011;59838;52.152;5.436;2023-05-10T02:14:05;44.60;;;16.08;;
71969;SDS011;59838;52.152;5.436;2023-05-10T02:16:33;47.63;;;17.40;;
71969;SDS011;59838;52.152;5.436;2023-05-10T02:19:02;49.30;;;16.83;;
71969;SDS011;59838;52.152;5.436;2023-05-10T02:21:29;45.80;;;15.60;;
71969;SDS011;59838;52.152;5.436;2023-05-10T02:23:57;44.97;;;17.40;;
71969;SDS011;59838;52.152;5.436;2023-05-10T02:26:25;46.47;;;16.92;;
71969;SDS011;59838;52.152;5.436;2023-05-10T02:28:52;44.93;;;16.07;;
71969;SDS011;59838;52.152;5.436;2023-05-10T02:31:20;42.95;;;16.38;;
71969;SDS011;59838;52.152;5.436;2023-05-10T02:33:48;49.17;;;17.75;;
71969;SDS011;59838;52.152;5.436;2023-05-10T02:36:15;42.13;;;17.02;;
71969;SDS011;59838;52.152;5.436;2023-05-10T02:38:43;50.70;;;19.08;;
71969;SDS011;59838;52.152;5.436;2023-05-10T02:41:11;48.97;;;17.83;;
71969;SDS011;59838;52.152;5.436;2023-05-10T02:43:39;47.47;;;17.15;;
71969;SDS011;59838;52.152;5.436;2023-05-10T02:46:07;46.03;;;17.98;;
71969;SDS011;59838;52.152;5.436;2023-05-10T02:48:33;45.90;;;16.75;;
71969;SDS011;59838;52.152;5.436;2023-05-10T02:51:00;50.10;;;18.10;;
71969;SDS011;59838;52.152;5.436;2023-05-10T02:53:31;51.60;;;16.83;;
71969;SDS011;59838;52.152;5.436;2023-05-10T02:56:00;45.25;;;16.90;;
71969;SDS011;59838;52.152;5.436;2023-05-10T02:58:35;54.55;;;18.90;;
71969;SDS011;59838;52.152;5.436;2023-05-10T03:01:02;48.22;;;18.58;;
71969;SDS011;59838;52.152;5.436;2023-05-10T03:03:28;48.65;;;18.08;;
71969;SDS011;59838;52.152;5.436;2023-05-10T03:05:55;51.97;;;18.33;;
71969;SDS011;59838;52.152;5.436;2023-05-10T03:08:22;52.50;;;19.15;;
71969;SDS011;59838;52.152;5.436;2023-05-10T03:16:36;52.65;;;19.50;;
71969;SDS011;59838;52.152;5.436;2023-05-10T03:19:12;45.17;;;18.30;;
71969;SDS011;59838;52.152;5.436;2023-05-10T03:21:49;52.72;;;17.55;;
71969;SDS011;59838;52.152;5.436;2023-05-10T03:24:20;51.53;;;17.70;;
71969;SDS011;59838;52.152;5.436;2023-05-10T03:26:49;52.90;;;16.80;;
71969;SDS011;59838;52.152;5.436;2023-05-10T03:29:18;52.20;;;19.08;;
71969;SDS011;59838;52.152;5.436;2023-05-10T03:31:46;48.50;;;16.90;;
71969;SDS011;59838;52.152;5.436;2023-05-10T03:34:13;58.13;;;18.77;;
71969;SDS011;59838;52.152;5.436;2023-05-10T03:36:39;68.57;;;20.25;;
71969;SDS011;59838;52.152;5.436;2023-05-10T03:39:06;63.92;;;18.85;;
71969;SDS011;59838;52.152;5.436;2023-05-10T03:41:32;62.13;;;19.85;;
71969;SDS011;59838;52.152;5.436;2023-05-10T03:43:59;59.40;;;18.20;;
71969;SDS011;59838;52.152;5.436;2023-05-10T03:46:25;60.28;;;18.63;;
71969;SDS011;59838;52.152;5.436;2023-05-10T03:48:52;61.53;;;19.77;;
71969;SDS011;59838;52.152;5.436;2023-05-10T03:51:18;64.00;;;18.98;;
71969;SDS011;59838;52.152;5.436;2023-05-10T03:53:44;62.67;;;18.58;;
71969;SDS011;59838;52.152;5.436;2023-05-10T03:56:11;67.23;;;18.47;;
71969;SDS011;59838;52.152;5.436;2023-05-10T03:58:37;55.20;;;18.17;;
71969;SDS011;59838;52.152;5.436;2023-05-10T04:01:04;62.65;;;19.55;;
71969;SDS011;59838;52.152;5.436;2023-05-10T04:03:30;57.33;;;19.35;;
71969;SDS011;59838;52.152;5.436;2023-05-10T04:05:58;65.45;;;19.40;;
71969;SDS011;59838;52.152;5.436;2023-05-10T04:08:28;60.77;;;18.80;;
71969;SDS011;59838;52.152;5.436;2023-05-10T04:11:04;64.95;;;19.58;;
71969;SDS011;59838;52.152;5.436;2023-05-10T04:13:31;61.15;;;19.08;;
71969;SDS011;59838;52.152;5.436;2023-05-10T04:15:58;63.53;;;19.23;;
71969;SDS011;59838;52.152;5.436;2023-05-10T04:18:24;62.88;;;18.55;;
71969;SDS011;59838;52.152;5.436;2023-05-10T04:20:51;62.63;;;18.83;;
71969;SDS011;59838;52.152;5.436;2023-05-10T04:23:17;68.43;;;20.90;;
71969;SDS011;59838;52.152;5.436;2023-05-10T04:25:44;64.90;;;20.15;;
71969;SDS011;59838;52.152;5.436;2023-05-10T04:28:10;63.53;;;19.98;;
71969;SDS011;59838;52.152;5.436;2023-05-10T04:30:37;64.65;;;18.55;;
71969;SDS011;59838;52.152;5.436;2023-05-10T04:33:03;65.17;;;19.97;;
71969;SDS011;59838;52.152;5.436;2023-05-10T04:35:30;63.92;;;20.45;;
71969;SDS011;59838;52.152;5.436;2023-05-10T04:37:56;68.53;;;19.25;;
71969;SDS011;59838;52.152;5.436;2023-05-10T04:40:23;62.60;;;19.45;;
71969;SDS011;59838;52.152;5.436;2023-05-10T04:42:49;58.95;;;17.05;;
71969;SDS011;59838;52.152;5.436;2023-05-10T04:45:16;58.57;;;19.40;;
71969;SDS011;59838;52.152;5.436;2023-05-10T04:47:43;66.88;;;18.92;;
71969;SDS011;59838;52.152;5.436;2023-05-10T04:50:09;56.72;;;18.33;;
71969;SDS011;59838;52.152;5.436;2023-05-10T04:52:36;61.58;;;19.05;;
71969;SDS011;59838;52.152;5.436;2023-05-10T04:55:02;66.00;;;20.80;;
71969;SDS011;59838;52.152;5.436;2023-05-10T04:57:29;66.87;;;19.53;;
71969;SDS011;59838;52.152;5.436;2023-05-10T04:59:59;68.53;;;20.92;;
71969;SDS011;59838;52.152;5.436;2023-05-10T05:02:26;63.75;;;19.73;;
71969;SDS011;59838;52.152;5.436;2023-05-10T05:04:52;79.78;;;21.38;;
71969;SDS011;59838;52.152;5.436;2023-05-10T05:07:19;66.70;;;20.85;;
71969;SDS011;59838;52.152;5.436;2023-05-10T05:09:45;64.63;;;19.43;;
71969;SDS011;59838;52.152;5.436;2023-05-10T05:12:12;72.32;;;23.02;;
71969;SDS011;59838;52.152;5.436;2023-05-10T05:14:40;69.97;;;21.38;;
71969;SDS011;59838;52.152;5.436;2023-05-10T05:17:07;66.55;;;21.50;;
71969;SDS011;59838;52.152;5.436;2023-05-10T05:19:34;66.07;;;21.00;;
71969;SDS011;59838;52.152;5.436;2023-05-10T05:22:00;70.17;;;20.67;;
71969;SDS011;59838;52.152;5.436;2023-05-10T05:24:27;69.38;;;19.98;;
71969;SDS011;59838;52.152;5.436;2023-05-10T05:26:54;57.75;;;19.48;;
71969;SDS011;59838;52.152;5.436;2023-05-10T05:29:20;63.25;;;19.40;;
71969;SDS011;59838;52.152;5.436;2023-05-10T05:31:47;55.47;;;18.48;;
71969;SDS011;59838;52.152;5.436;2023-05-10T05:34:13;53.43;;;19.10;;
71969;SDS011;59838;52.152;5.436;2023-05-10T05:36:40;51.10;;;18.60;;
71969;SDS011;59838;52.152;5.436;2023-05-10T05:39:07;47.63;;;17.85;;
71969;SDS011;59838;52.152;5.436;2023-05-10T05:41:33;54.28;;;18.65;;
71969;SDS011;59838;52.152;5.436;2023-05-10T05:44:00;52.05;;;18.70;;
71969;SDS011;59838;52.152;5.436;2023-05-10T05:46:26;54.47;;;18.63;;
71969;SDS011;59838;52.152;5.436;2023-05-10T05:48:53;50.63;;;17.90;;
71969;SDS011;59838;52.152;5.436;2023-05-10T05:51:19;59.13;;;19.05;;
71969;SDS011;59838;52.152;5.436;2023-05-10T05:53:46;49.80;;;18.83;;
71969;SDS011;59838;52.152;5.436;2023-05-10T05:56:13;58.78;;;19.75;;
71969;SDS011;59838;52.152;5.436;2023-05-10T05:58:39;56.10;;;17.80;;
71969;SDS011;59838;52.152;5.436;2023-05-10T06:01:06;55.75;;;18.05;;
71969;SDS011;59838;52.152;5.436;2023-05-10T06:03:32;54.17;;;18.15;;
71969;SDS011;59838;52.152;5.436;2023-05-10T06:05:59;52.70;;;18.40;;
71969;SDS011;59838;52.152;5.436;2023-05-10T06:08:26;50.20;;;17.83;;
71969;SDS011;59838;52.152;5.436;2023-05-10T06:10:53;48.63;;;17.47;;
71969;SDS011;59838;52.152;5.436;2023-05-10T06:13:19;48.03;;;16.15;;
71969;SDS011;59838;52.152;5.436;2023-05-10T06:15:46;42.53;;;16.23;;
71969;SDS011;59838;52.152;5.436;2023-05-10T06:18:12;50.20;;;18.63;;
71969;SDS011;59838;52.152;5.436;2023-05-10T06:20:40;47.58;;;17.92;;
71969;SDS011;59838;52.152;5.436;2023-05-10T06:23:07;51.83;;;18.80;;
71969;SDS011;59838;52.152;5.436;2023-05-10T06:25:33;51.88;;;17.73;;
71969;SDS011;59838;52.152;5.436;2023-05-10T06:28:01;43.00;;;17.55;;
71969;SDS011;59838;52.152;5.436;2023-05-10T06:30:28;39.03;;;15.30;;
71969;SDS011;59838;52.152;5.436;2023-05-10T06:32:55;40.22;;;15.55;;
71969;SDS011;59838;52.152;5.436;2023-05-10T06:35:23;41.10;;;16.23;;
71969;SDS011;59838;52.152;5.436;2023-05-10T06:37:49;41.20;;;15.27;;
71969;SDS011;59838;52.152;5.436;2023-05-10T06:40:17;38.70;;;15.43;;
71969;SDS011;59838;52.152;5.436;2023-05-10T06:42:44;37.85;;;15.63;;
71969;SDS011;59838;52.152;5.436;2023-05-10T06:45:11;26.85;;;12.35;;
71969;SDS011;59838;52.152;5.436;2023-05-10T06:47:38;30.93;;;12.97;;
71969;SDS011;59838;52.152;5.436;2023-05-10T06:50:05;30.88;;;12.32;;
71969;SDS011;59838;52.152;5.436;2023-05-10T06:52:33;24.95;;;10.90;;
71969;SDS011;59838;52.152;5.436;2023-05-10T06:54:59;21.40;;;10.02;;
71969;SDS011;59838;52.152;5.436;2023-05-10T06:57:26;22.80;;;9.98;;
71969;SDS011;59838;52.152;5.436;2023-05-10T06:59:57;18.57;;;9.50;;
71969;SDS011;59838;52.152;5.436;2023-05-10T07:02:24;14.70;;;8.05;;
71969;SDS011;59838;52.152;5.436;2023-05-10T07:04:51;18.60;;;8.77;;
71969;SDS011;59838;52.152;5.436;2023-05-10T07:07:18;17.67;;;8.50;;
71969;SDS011;59838;52.152;5.436;2023-05-10T07:09:45;21.17;;;8.38;;
71969;SDS011;59838;52.152;5.436;2023-05-10T07:12:11;16.13;;;8.23;;
71969;SDS011;59838;52.152;5.436;2023-05-10T07:14:40;13.80;;;6.72;;
71969;SDS011;59838;52.152;5.436;2023-05-10T07:17:07;12.98;;;7.32;;
71969;SDS011;59838;52.152;5.436;2023-05-10T07:19:33;13.88;;;6.47;;
71969;SDS011;59838;52.152;5.436;2023-05-10T07:22:00;15.57;;;7.68;;
71969;SDS011;59838;52.152;5.436;2023-05-10T07:24:27;14.07;;;6.50;;
71969;SDS011;59838;52.152;5.436;2023-05-10T07:26:53;16.27;;;6.78;;
71969;SDS011;59838;52.152;5.436;2023-05-10T07:29:19;15.75;;;7.20;;
71969;SDS011;59838;52.152;5.436;2023-05-10T07:31:46;13.75;;;6.65;;
71969;SDS011;59838;52.152;5.436;2023-05-10T07:34:12;12.95;;;6.15;;
71969;SDS011;59838;52.152;5.436;2023-05-10T07:36:39;11.20;;;5.77;;
71969;SDS011;59838;52.152;5.436;2023-05-10T07:39:06;14.77;;;5.88;;
71969;SDS011;59838;52.152;5.436;2023-05-10T07:41:33;13.57;;;6.85;;
71969;SDS011;59838;52.152;5.436;2023-05-10T07:44:01;14.57;;;6.85;;
71969;SDS011;59838;52.152;5.436;2023-05-10T07:46:27;19.10;;;6.65;;
71969;SDS011;59838;52.152;5.436;2023-05-10T07:48:54;17.23;;;7.80;;
71969;SDS011;59838;52.152;5.436;2023-05-10T07:51:21;16.98;;;7.80;;
71969;SDS011;59838;52.152;5.436;2023-05-10T07:53:48;15.60;;;8.55;;
71969;SDS011;59838;52.152;5.436;2023-05-10T07:58:55;16.52;;;7.72;;
71969;SDS011;59838;52.152;5.436;2023-05-10T08:01:22;16.17;;;7.37;;
71969;SDS011;59838;52.152;5.436;2023-05-10T08:03:49;17.38;;;6.93;;
71969;SDS011;59838;52.152;5.436;2023-05-10T08:06:17;15.15;;;7.35;;
71969;SDS011;59838;52.152;5.436;2023-05-10T08:08:48;11.35;;;6.65;;
71969;SDS011;59838;52.152;5.436;2023-05-10T08:11:20;12.55;;;6.25;;
71969;SDS011;59838;52.152;5.436;2023-05-10T08:13:47;12.40;;;6.80;;
71969;SDS011;59838;52.152;5.436;2023-05-10T08:16:14;13.68;;;6.43;;
71969;SDS011;59838;52.152;5.436;2023-05-10T08:18:41;11.13;;;6.25;;
71969;SDS011;59838;52.152;5.436;2023-05-10T08:21:09;18.08;;;6.13;;
71969;SDS011;59838;52.152;5.436;2023-05-10T08:23:37;12.70;;;6.97;;
71969;SDS011;59838;52.152;5.436;2023-05-10T08:26:04;14.27;;;6.73;;
71969;SDS011;59838;52.152;5.436;2023-05-10T08:28:30;14.25;;;6.95;;
71969;SDS011;59838;52.152;5.436;2023-05-10T08:30:57;12.65;;;6.60;;
71969;SDS011;59838;52.152;5.436;2023-05-10T08:33:23;12.48;;;7.43;;
71969;SDS011;59838;52.152;5.436;2023-05-10T08:35:50;12.15;;;7.07;;
71969;SDS011;59838;52.152;5.436;2023-05-10T08:38:17;15.80;;;7.43;;
71969;SDS011;59838;52.152;5.436;2023-05-10T08:40:44;11.02;;;6.38;;
71969;SDS011;59838;52.152;5.436;2023-05-10T08:43:12;11.35;;;6.43;;
71969;SDS011;59838;52.152;5.436;2023-05-10T08:45:44;14.70;;;6.45;;
71969;SDS011;59838;52.152;5.436;2023-05-10T08:48:13;13.18;;;6.68;;
71969;SDS011;59838;52.152;5.436;2023-05-10T08:50:41;10.43;;;6.57;;
71969;SDS011;59838;52.152;5.436;2023-05-10T08:53:09;11.20;;;6.28;;
71969;SDS011;59838;52.152;5.436;2023-05-10T08:55:37;12.68;;;7.13;;
71969;SDS011;59838;52.152;5.436;2023-05-10T08:58:05;12.43;;;6.88;;
71969;SDS011;59838;52.152;5.436;2023-05-10T09:00:32;11.50;;;6.40;;
71969;SDS011;59838;52.152;5.436;2023-05-10T09:03:00;10.13;;;6.17;;
71969;SDS011;59838;52.152;5.436;2023-05-10T09:05:27;11.35;;;5.88;;
71969;SDS011;59838;52.152;5.436;2023-05-10T09:07:54;10.82;;;7.03;;
71969;SDS011;59838;52.152;5.436;2023-05-10T09:10:20;10.30;;;6.15;;
71969;SDS011;59838;52.152;5.436;2023-05-10T09:12:48;9.27;;;5.65;;
71969;SDS011;59838;52.152;5.436;2023-05-10T09:15:15;10.27;;;5.83;;
71969;SDS011;59838;52.152;5.436;2023-05-10T09:17:45;11.25;;;6.15;;
71969;SDS011;59838;52.152;5.436;2023-05-10T09:20:13;7.07;;;5.32;;
71969;SDS011;59838;52.152;5.436;2023-05-10T09:22:39;8.98;;;4.97;;
71969;SDS011;59838;52.152;5.436;2023-05-10T09:25:10;7.47;;;5.03;;
71969;SDS011;59838;52.152;5.436;2023-05-10T09:27:44;9.40;;;5.07;;
71969;SDS011;59838;52.152;5.436;2023-05-10T09:30:15;8.98;;;4.35;;
71969;SDS011;59838;52.152;5.436;2023-05-10T09:32:44;8.43;;;3.47;;
71969;SDS011;59838;52.152;5.436;2023-05-10T09:35:13;5.57;;;3.13;;
71969;SDS011;59838;52.152;5.436;2023-05-10T09:37:43;7.60;;;3.83;;
71969;SDS011;59838;52.152;5.436;2023-05-10T09:40:12;5.80;;;2.80;;
71969;SDS011;59838;52.152;5.436;2023-05-10T09:42:42;6.15;;;3.38;;
71969;SDS011;59838;52.152;5.436;2023-05-10T09:45:09;3.35;;;2.00;;
71969;SDS011;59838;52.152;5.436;2023-05-10T09:47:36;2.88;;;1.65;;
71969;SDS011;59838;52.152;5.436;2023-05-10T09:50:03;2.90;;;2.05;;
71969;SDS011;59838;52.152;5.436;2023-05-10T09:52:31;6.47;;;1.90;;
71969;SDS011;59838;52.152;5.436;2023-05-10T09:55:18;2.85;;;2.15;;
71969;SDS011;59838;52.152;5.436;2023-05-10T09:57:47;3.35;;;1.30;;
71969;SDS011;59838;52.152;5.436;2023-05-10T10:00:18;3.50;;;1.15;;
71969;SDS011;59838;52.152;5.436;2023-05-10T10:02:47;6.30;;;2.20;;
71969;SDS011;59838;52.152;5.436;2023-05-10T10:05:20;3.47;;;1.63;;
71969;SDS011;59838;52.152;5.436;2023-05-10T10:07:46;3.08;;;1.83;;
71969;SDS011;59838;52.152;5.436;2023-05-10T10:10:15;3.50;;;1.98;;
71969;SDS011;59838;52.152;5.436;2023-05-10T10:12:42;6.20;;;2.67;;
71969;SDS011;59838;52.152;5.436;2023-05-10T10:15:08;4.47;;;2.22;;
71969;SDS011;59838;52.152;5.436;2023-05-10T10:17:36;4.43;;;2.40;;
71969;SDS011;59838;52.152;5.436;2023-05-10T10:20:05;4.10;;;2.50;;
71969;SDS011;59838;52.152;5.436;2023-05-10T10:22:35;4.93;;;2.90;;
71969;SDS011;59838;52.152;5.436;2023-05-10T10:25:03;4.93;;;3.38;;
71969;SDS011;59838;52.152;5.436;2023-05-10T10:27:36;3.50;;;2.50;;
71969;SDS011;59838;52.152;5.436;2023-05-10T10:30:18;5.13;;;2.87;;
71969;SDS011;59838;52.152;5.436;2023-05-10T10:33:10;5.95;;;3.47;;
71969;SDS011;59838;52.152;5.436;2023-05-10T10:35:54;4.65;;;2.60;;
71969;SDS011;59838;52.152;5.436;2023-05-10T10:38:23;5.65;;;3.08;;
71969;SDS011;59838;52.152;5.436;2023-05-10T10:41:04;4.90;;;3.28;;
71969;SDS011;59838;52.152;5.436;2023-05-10T10:43:35;4.23;;;3.13;;
71969;SDS011;59838;52.152;5.436;2023-05-10T10:48:49;4.25;;;3.30;;
71969;SDS011;59838;52.152;5.436;2023-05-10T10:51:17;5.20;;;3.00;;
71969;SDS011;59838;52.152;5.436;2023-05-10T10:53:44;5.57;;;3.63;;
71969;SDS011;59838;52.152;5.436;2023-05-10T10:56:13;5.30;;;2.80;;
71969;SDS011;59838;52.152;5.436;2023-05-10T10:58:42;7.47;;;3.90;;
71969;SDS011;59838;52.152;5.436;2023-05-10T11:01:17;7.82;;;3.42;;
71969;SDS011;59838;52.152;5.436;2023-05-10T11:06:34;4.85;;;3.15;;
71969;SDS011;59838;52.152;5.436;2023-05-10T11:09:06;4.10;;;3.20;;
71969;SDS011;59838;52.152;5.436;2023-05-10T11:11:34;3.55;;;2.55;;
71969;SDS011;59838;52.152;5.436;2023-05-10T11:14:05;3.75;;;2.67;;
71969;SDS011;59838;52.152;5.436;2023-05-10T11:16:42;3.70;;;2.65;;
71969;SDS011;59838;52.152;5.436;2023-05-10T11:19:10;5.53;;;3.20;;
71969;SDS011;59838;52.152;5.436;2023-05-10T11:21:45;3.97;;;2.83;;
71969;SDS011;59838;52.152;5.436;2023-05-10T11:24:14;4.65;;;2.85;;
71969;SDS011;59838;52.152;5.436;2023-05-10T11:26:46;4.15;;;3.15;;
71969;SDS011;59838;52.152;5.436;2023-05-10T11:29:15;3.92;;;2.67;;
71969;SDS011;59838;52.152;5.436;2023-05-10T11:31:45;4.97;;;2.97;;
71969;SDS011;59838;52.152;5.436;2023-05-10T11:34:22;6.03;;;2.63;;
71969;SDS011;59838;52.152;5.436;2023-05-10T11:37:01;5.63;;;3.15;;
71969;SDS011;59838;52.152;5.436;2023-05-10T11:39:28;5.40;;;3.28;;
71969;SDS011;59838;52.152;5.436;2023-05-10T11:41:57;3.45;;;2.75;;
71969;SDS011;59838;52.152;5.436;2023-05-10T11:44:29;5.53;;;2.90;;
71969;SDS011;59838;52.152;5.436;2023-05-10T11:47:01;4.63;;;2.67;;
71969;SDS011;59838;52.152;5.436;2023-05-10T11:49:29;3.78;;;2.53;;
71969;SDS011;59838;52.152;5.436;2023-05-10T11:52:05;5.78;;;2.70;;
71969;SDS011;59838;52.152;5.436;2023-05-10T11:54:33;4.03;;;2.22;;
71969;SDS011;59838;52.152;5.436;2023-05-10T11:57:01;3.58;;;2.50;;
71969;SDS011;59838;52.152;5.436;2023-05-10T11:59:29;4.77;;;2.70;;
71969;SDS011;59838;52.152;5.436;2023-05-10T12:02:29;3.90;;;2.08;;
71969;SDS011;59838;52.152;5.436;2023-05-10T12:04:56;5.82;;;2.55;;
71969;SDS011;59838;52.152;5.436;2023-05-10T12:07:23;3.22;;;2.08;;
71969;SDS011;59838;52.152;5.436;2023-05-10T12:10:05;3.85;;;2.40;;
71969;SDS011;59838;52.152;5.436;2023-05-10T12:12:42;4.43;;;1.83;;
71969;SDS011;59838;52.152;5.436;2023-05-10T12:15:17;2.72;;;2.00;;
71969;SDS011;59838;52.152;5.436;2023-05-10T12:17:44;2.92;;;1.48;;
71969;SDS011;59838;52.152;5.436;2023-05-10T12:20:21;3.20;;;1.67;;
71969;SDS011;59838;52.152;5.436;2023-05-10T12:22:54;3.80;;;1.95;;
71969;SDS011;59838;52.152;5.436;2023-05-10T12:25:29;3.67;;;1.53;;
71969;SDS011;59838;52.152;5.436;2023-05-10T12:27:57;4.22;;;2.45;;
71969;SDS011;59838;52.152;5.436;2023-05-10T12:30:27;3.33;;;1.85;;
71969;SDS011;59838;52.152;5.436;2023-05-10T12:33:02;3.60;;;1.50;;
71969;SDS011;59838;52.152;5.436;2023-05-10T12:35:43;3.92;;;1.38;;
71969;SDS011;59838;52.152;5.436;2023-05-10T12:38:31;2.63;;;1.03;;
71969;SDS011;59838;52.152;5.436;2023-05-10T12:41:00;3.47;;;1.50;;
71969;SDS011;59838;52.152;5.436;2023-05-10T12:43:30;2.70;;;1.45;;
71969;SDS011;59838;52.152;5.436;2023-05-10T12:45:57;2.65;;;1.60;;
71969;SDS011;59838;52.152;5.436;2023-05-10T12:48:24;3.05;;;1.70;;
71969;SDS011;59838;52.152;5.436;2023-05-10T12:50:51;2.63;;;1.57;;
71969;SDS011;59838;52.152;5.436;2023-05-10T12:53:17;3.38;;;1.40;;
71969;SDS011;59838;52.152;5.436;2023-05-10T12:55:44;2.03;;;1.58;;
71969;SDS011;59838;52.152;5.436;2023-05-10T12:58:10;4.10;;;1.40;;
71969;SDS011;59838;52.152;5.436;2023-05-10T13:00:46;3.53;;;1.48;;
71969;SDS011;59838;52.152;5.436;2023-05-10T13:03:12;2.80;;;1.00;;
71969;SDS011;59838;52.152;5.436;2023-05-10T13:05:39;1.98;;;1.00;;
71969;SDS011;59838;52.152;5.436;2023-05-10T13:08:05;3.38;;;1.08;;
71969;SDS011;59838;52.152;5.436;2023-05-10T13:10:32;2.85;;;0.80;;
71969;SDS011;59838;52.152;5.436;2023-05-10T13:12:58;1.67;;;0.93;;
71969;SDS011;59838;52.152;5.436;2023-05-10T13:15:25;3.53;;;0.70;;
71969;SDS011;59838;52.152;5.436;2023-05-10T13:17:52;1.80;;;0.63;;
71969;SDS011;59838;52.152;5.436;2023-05-10T13:20:20;1.77;;;0.85;;
71969;SDS011;59838;52.152;5.436;2023-05-10T13:22:46;2.83;;;0.85;;
71969;SDS011;59838;52.152;5.436;2023-05-10T13:25:15;1.30;;;0.55;;
71969;SDS011;59838;52.152;5.436;2023-05-10T13:27:41;2.90;;;0.90;;
71969;SDS011;59838;52.152;5.436;2023-05-10T13:30:08;2.55;;;1.00;;
71969;SDS011;59838;52.152;5.436;2023-05-10T13:32:35;4.93;;;2.70;;
71969;SDS011;59838;52.152;5.436;2023-05-10T13:35:02;5.88;;;2.90;;
71969;SDS011;59838;52.152;5.436;2023-05-10T13:37:32;5.68;;;3.60;;
71969;SDS011;59838;52.152;5.436;2023-05-10T13:40:01;7.40;;;3.80;;
71969;SDS011;59838;52.152;5.436;2023-05-10T13:42:27;7.63;;;3.35;;
71969;SDS011;59838;52.152;5.436;2023-05-10T13:44:54;5.47;;;3.55;;
71969;SDS011;59838;52.152;5.436;2023-05-10T13:47:20;8.93;;;3.22;;
71969;SDS011;59838;52.152;5.436;2023-05-10T13:49:48;8.30;;;3.85;;
71969;SDS011;59838;52.152;5.436;2023-05-10T13:52:14;5.13;;;2.87;;
71969;SDS011;59838;52.152;5.436;2023-05-10T13:54:41;7.78;;;3.70;;
71969;SDS011;59838;52.152;5.436;2023-05-10T13:57:07;5.07;;;3.35;;
71969;SDS011;59838;52.152;5.436;2023-05-10T13:59:34;7.40;;;3.53;;
71969;SDS011;59838;52.152;5.436;2023-05-10T14:02:00;11.95;;;4.43;;
71969;SDS011;59838;52.152;5.436;2023-05-10T14:04:30;6.07;;;3.63;;
71969;SDS011;59838;52.152;5.436;2023-05-10T14:06:57;6.75;;;3.65;;
71969;SDS011;59838;52.152;5.436;2023-05-10T14:09:24;5.82;;;3.28;;
71969;SDS011;59838;52.152;5.436;2023-05-10T14:11:50;9.90;;;4.07;;
71969;SDS011;59838;52.152;5.436;2023-05-10T14:14:17;6.88;;;3.70;;
71969;SDS011;59838;52.152;5.436;2023-05-10T14:16:43;5.13;;;3.17;;
71969;SDS011;59838;52.152;5.436;2023-05-10T14:19:10;6.68;;;3.47;;
71969;SDS011;59838;52.152;5.436;2023-05-10T14:21:37;7.32;;;3.30;;
71969;SDS011;59838;52.152;5.436;2023-05-10T14:24:04;7.32;;;3.53;;
71969;SDS011;59838;52.152;5.436;2023-05-10T14:26:32;7.18;;;3.50;;
71969;SDS011;59838;52.152;5.436;2023-05-10T14:29:00;6.07;;;3.30;;
71969;SDS011;59838;52.152;5.436;2023-05-10T14:31:26;7.80;;;3.45;;
71969;SDS011;59838;52.152;5.436;2023-05-10T14:33:53;7.28;;;3.72;;
71969;SDS011;59838;52.152;5.436;2023-05-10T14:36:19;7.07;;;3.35;;
71969;SDS011;59838;52.152;5.436;2023-05-10T14:38:46;6.40;;;3.50;;
71969;SDS011;59838;52.152;5.436;2023-05-10T14:41:12;7.07;;;3.73;;
71969;SDS011;59838;52.152;5.436;2023-05-10T14:43:41;8.60;;;3.70;;
71969;SDS011;59838;52.152;5.436;2023-05-10T14:46:07;6.80;;;3.50;;
71969;SDS011;59838;52.152;5.436;2023-05-10T14:48:34;6.93;;;3.63;;
71969;SDS011;59838;52.152;5.436;2023-05-10T14:51:01;9.27;;;4.72;;
71969;SDS011;59838;52.152;5.436;2023-05-10T14:53:28;6.77;;;3.93;;
71969;SDS011;59838;52.152;5.436;2023-05-10T14:55:54;5.88;;;3.25;;
71969;SDS011;59838;52.152;5.436;2023-05-10T14:58:21;8.50;;;4.10;;
71969;SDS011;59838;52.152;5.436;2023-05-10T15:00:47;6.20;;;3.72;;
71969;SDS011;59838;52.152;5.436;2023-05-10T15:03:14;6.93;;;3.60;;
71969;SDS011;59838;52.152;5.436;2023-05-10T15:05:41;7.93;;;3.90;;
71969;SDS011;59838;52.152;5.436;2023-05-10T15:08:07;8.23;;;4.13;;
71969;SDS011;59838;52.152;5.436;2023-05-10T15:10:35;9.20;;;4.40;;